M S San Francisco — WZC3886 — position and weather

sailwx.info

Track history (hours):
 
Tides and Currents Weather Stations Pressure Air Temp Water Temp Dewpoint Dewpoint Depression Visibility Wind Speed Wind Dir Waves Ship Positions

M S San Francisco

Owner: GOLDEN GATE BRIDGE HWY & TRANSP DISTRICT, LARKSPUR, CA. More information available from US FCC via Universal Licensing System and Coast Guard Vessel Documentation Center.

Last reported at 2018-Jul-23 11:31 UTC. Time now 2018-Jul-23 11:37 UTC.
Position N 37°57' W 122°31'.

Length 58 m.

Type: Passenger vessel. MMSI: 366963980.

Date/timePositionNaut miles runAvg speedWind from/ knotsBaromVisibWave heightAir tempDewpointWater temp
2018-Jul-23 11:31N 37°57' W 122°31'0 0.0
2018-Jul-23 05:32N 37°57' W 122°31'0 0.0
2018-Jul-23 05:30N 37°57' W 122°31'611.2
2018-Jul-23 05:01N 37°53' W 122°25'510.6
2018-Jul-23 04:30N 37°48' W 122°24'0 0.0
2018-Jul-23 04:00N 37°48' W 122°24'4 8.4
2018-Jul-23 03:30N 37°51' W 122°27'0 0.9
2018-Jul-23 03:01N 37°51' W 122°28'5 9.2
2018-Jul-23 02:30N 37°48' W 122°24'510.5
2018-Jul-23 02:00N 37°51' W 122°29'0 0.4
2018-Jul-23 01:30N 37°51' W 122°28'510.2
2018-Jul-23 01:00N 37°48' W 122°24'0 0.0
2018-Jul-23 00:30N 37°48' W 122°24'0 0.0
2018-Jul-23 00:00N 37°48' W 122°24'0 0.1
2018-Jul-22 23:30N 37°48' W 122°24'0 0.0
2018-Jul-22 23:00N 37°48' W 122°24'510.8
2018-Jul-22 22:30N 37°51' W 122°29'0 0.1
2018-Jul-22 22:00N 37°51' W 122°29'0 0.8
2018-Jul-22 21:31N 37°51' W 122°28'5 9.3
2018-Jul-22 21:00N 37°56' W 122°28'2 4.3
2018-Jul-22 20:30N 37°57' W 122°31'0 0.0
2018-Jul-22 02:58N 37°57' W 122°31'0 0.0
2018-Jul-22 02:30N 37°57' W 122°31'2 3.7
2018-Jul-22 02:00N 37°56' W 122°28'917.8
2018-Jul-22 01:30N 37°48' W 122°23'0 0.5
2018-Jul-22 01:00N 37°48' W 122°23'510.7
2018-Jul-22 00:30N 37°51' W 122°29'1 2.7
2018-Jul-22 00:00N 37°51' W 122°27'4 8.2
2018-Jul-21 23:30N 37°48' W 122°24'510.4
2018-Jul-21 23:00N 37°51' W 122°28'0 0.3
2018-Jul-21 22:30N 37°51' W 122°28'510.2
2018-Jul-21 22:01N 37°48' W 122°24'3 6.6
2018-Jul-21 21:31N 37°50' W 122°26'2 4.6
2018-Jul-21 21:00N 37°51' W 122°29'510.8
2018-Jul-21 20:30N 37°48' W 122°24'3 6.1
2018-Jul-21 20:00N 37°50' W 122°26'2 5.0
2018-Jul-21 19:30N 37°51' W 122°28'510.4
2018-Jul-21 19:00N 37°48' W 122°24'510.0
2018-Jul-21 18:30N 37°51' W 122°28'1 2.5
2018-Jul-21 18:00N 37°51' W 122°27'4 7.6
2018-Jul-21 17:30N 37°48' W 122°23'816.1
2018-Jul-21 17:01N 37°55' W 122°27'3 5.7
2018-Jul-21 16:30N 37°57' W 122°31'0 0.0
2018-Jul-21 16:00N 37°57' W 122°31'0 0.0
2018-Jul-21 15:30N 37°57' W 122°31'0 0.0
2018-Jul-21 15:00N 37°57' W 122°31'0 0.0
2018-Jul-21 14:30N 37°57' W 122°31'0 0.0
2018-Jul-21 13:30N 37°57' W 122°31'0 0.0
2018-Jul-21 13:00N 37°57' W 122°31'0 0.0
2018-Jul-21 12:30N 37°57' W 122°31'0 0.0
2018-Jul-21 12:00N 37°57' W 122°31'0 0.0
2018-Jul-21 11:30N 37°57' W 122°31'0 0.0
2018-Jul-21 11:00N 37°57' W 122°31'0 0.0
2018-Jul-21 10:30N 37°57' W 122°31'0 0.0
2018-Jul-21 10:00N 37°57' W 122°31'0 0.0
2018-Jul-21 09:30N 37°57' W 122°31'0 0.0
2018-Jul-21 09:00N 37°57' W 122°31'0 0.0
2018-Jul-21 08:30N 37°57' W 122°31'0 0.0
2018-Jul-21 08:00N 37°57' W 122°31'0 0.0
2018-Jul-21 07:30N 37°57' W 122°31'0 0.0
2018-Jul-21 07:00N 37°57' W 122°31'0 0.0
2018-Jul-21 06:30N 37°57' W 122°31'0 0.0
2018-Jul-21 06:00N 37°57' W 122°31'0 0.0
2018-Jul-21 05:30N 37°57' W 122°31'0 0.0
2018-Jul-21 05:00N 37°57' W 122°31'0 0.4
2018-Jul-21 04:30N 37°57' W 122°30'2 4.4
2018-Jul-21 04:00N 37°56' W 122°28'4 7.9
2018-Jul-21 03:30N 37°53' W 122°25'5 9.8
2018-Jul-21 03:00N 37°48' W 122°24'0 0.0
2018-Jul-21 02:30N 37°48' W 122°24'0 0.0
2018-Jul-21 02:00N 37°48' W 122°24'510.7
2018-Jul-21 01:30N 37°51' W 122°29'4 7.1
2018-Jul-21 01:00N 37°50' W 122°24'2 4.8
2018-Jul-21 00:31N 37°48' W 122°23'510.7
2018-Jul-21 00:01N 37°51' W 122°29'2 5.0
2018-Jul-20 23:30N 37°51' W 122°26'3 6.5
2018-Jul-20 23:00N 37°48' W 122°24'510.6
2018-Jul-20 22:30N 37°51' W 122°29'0 0.0
2018-Jul-20 22:00N 37°51' W 122°29'3 5.8
2018-Jul-20 21:30N 37°54' W 122°26'4 9.0
2018-Jul-20 21:00N 37°57' W 122°31'0 0.0
2018-Jul-20 20:30N 37°57' W 122°31'0 0.0
2018-Jul-20 20:00N 37°57' W 122°31'0 0.0
2018-Jul-20 19:30N 37°57' W 122°31'0 0.0
2018-Jul-20 19:00N 37°57' W 122°31'0 0.0
2018-Jul-20 18:30N 37°57' W 122°31'0 0.0
2018-Jul-20 18:00N 37°57' W 122°31'1 1.8
2018-Jul-20 17:30N 37°56' W 122°30'611.7
2018-Jul-20 17:00N 37°52' W 122°24'3 6.2
2018-Jul-20 16:31N 37°49' W 122°24'5 9.0
2018-Jul-20 16:00N 37°52' W 122°27'510.9
2018-Jul-20 15:30N 37°48' W 122°24'510.5
2018-Jul-20 15:00N 37°52' W 122°27'2 3.8
2018-Jul-20 14:30N 37°51' W 122°26'3 5.7
2018-Jul-20 14:00N 37°48' W 122°23'5 9.9
2018-Jul-20 13:30N 37°52' W 122°27'510.9
2018-Jul-20 13:00N 37°48' W 122°24'510.9
2018-Jul-20 12:30N 37°52' W 122°27'2 3.4
2018-Jul-20 12:00N 37°54' W 122°27'4 8.0
2018-Jul-20 11:30N 37°57' W 122°31'0 0.0
2018-Jul-20 04:32N 37°57' W 122°31'0 0.0
2018-Jul-20 04:31N 37°57' W 122°31'2 4.6
2018-Jul-20 04:01N 37°56' W 122°28'3 5.8
2018-Jul-20 03:30N 37°54' W 122°25'612.1
2018-Jul-20 03:00N 37°48' W 122°24'0 0.1
2018-Jul-20 02:31N 37°48' W 122°24'0 0.8
2018-Jul-20 02:01N 37°48' W 122°23'510.7
2018-Jul-20 01:30N 37°51' W 122°29'3 7.1
2018-Jul-20 01:00N 37°50' W 122°24'2 4.7
2018-Jul-20 00:30N 37°48' W 122°23'510.6
2018-Jul-20 00:01N 37°51' W 122°29'1 2.1
2018-Jul-19 23:30N 37°51' W 122°27'5 9.1
2018-Jul-19 23:01N 37°48' W 122°24'510.7
2018-Jul-19 22:30N 37°51' W 122°29'0 0.0
2018-Jul-19 22:01N 37°51' W 122°29'3 5.6
2018-Jul-19 21:30N 37°53' W 122°26'5 9.3
2018-Jul-19 21:00N 37°57' W 122°31'0 0.0
2018-Jul-18 04:05N 37°57' W 122°31'0 0.8
2018-Jul-18 04:00N 37°57' W 122°30'510.3
2018-Jul-18 03:30N 37°53' W 122°25'611.4
2018-Jul-18 03:00N 37°48' W 122°24'510.8
2018-Jul-18 02:30N 37°51' W 122°29'0 0.4
2018-Jul-18 02:00N 37°51' W 122°28'3 5.8
2018-Jul-18 01:30N 37°50' W 122°25'3 5.5
2018-Jul-18 01:00N 37°48' W 122°24'2 4.3
2018-Jul-18 00:30N 37°50' W 122°25'3 6.7
2018-Jul-18 00:00N 37°51' W 122°29'510.6
2018-Jul-17 23:30N 37°48' W 122°23'0 0.7
2018-Jul-17 23:00N 37°48' W 122°24'510.9
2018-Jul-17 22:31N 37°51' W 122°29'0 0.0
2018-Jul-17 22:01N 37°51' W 122°29'2 4.6
2018-Jul-17 21:30N 37°53' W 122°26'510.4
2018-Jul-17 21:00N 37°57' W 122°30'0 0.0
2018-Jul-17 20:30N 37°57' W 122°30'0 0.0
2018-Jul-17 18:17N 37°57' W 122°31'0 0.0
2018-Jul-17 18:00N 37°57' W 122°31'1 2.7
2018-Jul-17 17:30N 37°56' W 122°29'713.0
2018-Jul-17 17:00N 37°51' W 122°24'1 2.8
2018-Jul-17 16:31N 37°49' W 122°24'4 7.6
2018-Jul-17 16:00N 37°52' W 122°27'510.9
2018-Jul-17 15:30N 37°48' W 122°24'510.7
2018-Jul-17 15:00N 37°52' W 122°27'2 4.2
2018-Jul-17 14:30N 37°51' W 122°26'2 4.0
2018-Jul-17 14:00N 37°49' W 122°24'4 8.5
2018-Jul-17 13:31N 37°52' W 122°27'510.8
2018-Jul-17 13:00N 37°48' W 122°24'511.0
2018-Jul-17 12:30N 37°52' W 122°27'4 7.6
2018-Jul-17 12:00N 37°56' W 122°29'2 3.1
2018-Jul-17 11:30N 37°57' W 122°31'0 0.0
2018-Jul-17 04:26N 37°57' W 122°31'2 5.1
2018-Jul-17 04:01N 37°56' W 122°28'4 8.6
2018-Jul-17 03:30N 37°51' W 122°29'510.9
2018-Jul-17 03:00N 37°48' W 122°23'3 5.6
2018-Jul-17 02:31N 37°50' W 122°26'2 4.2
2018-Jul-17 02:00N 37°51' W 122°28'5 9.6
2018-Jul-17 01:30N 37°48' W 122°24'4 8.0
2018-Jul-17 01:00N 37°51' W 122°27'1 1.8
2018-Jul-17 00:30N 37°51' W 122°28'0 0.5
2018-Jul-16 23:30N 37°51' W 122°29'2 3.0
2018-Jul-16 23:01N 37°51' W 122°27'4 8.0
2018-Jul-16 22:31N 37°48' W 122°24'510.7
2018-Jul-16 22:00N 37°51' W 122°29'3 5.2
2018-Jul-16 21:31N 37°53' W 122°26'510.4
2018-Jul-16 21:00N 37°57' W 122°30'0 0.1
2018-Jul-16 20:30N 37°57' W 122°31'0 0.0
2018-Jul-16 20:00N 37°57' W 122°31'0 0.0
2018-Jul-16 19:30N 37°57' W 122°31'0 0.0
2018-Jul-16 19:00N 37°57' W 122°31'0 0.0
2018-Jul-16 18:30N 37°57' W 122°31'0 0.0
2018-Jul-16 18:00N 37°57' W 122°31'3 6.5
2018-Jul-16 17:31N 37°55' W 122°27'4 7.3
2018-Jul-16 17:01N 37°52' W 122°24'3 6.8
2018-Jul-16 16:30N 37°49' W 122°24'5 9.4
2018-Jul-16 16:01N 37°52' W 122°27'510.9
2018-Jul-16 15:31N 37°48' W 122°24'510.3
2018-Jul-16 15:00N 37°52' W 122°27'1 2.1
2018-Jul-16 14:31N 37°51' W 122°27'3 6.8
2018-Jul-16 14:00N 37°49' W 122°23'5 9.6
2018-Jul-16 13:30N 37°52' W 122°27'510.9
2018-Jul-16 13:00N 37°48' W 122°24'511.0
2018-Jul-16 12:30N 37°52' W 122°27'2 3.3
2018-Jul-16 12:01N 37°54' W 122°27'4 8.1
2018-Jul-16 11:30N 37°57' W 122°31'0 0.0
2018-Jul-16 11:00N 37°57' W 122°31'0 0.0
2018-Jul-16 10:31N 37°57' W 122°31'0 0.0
2018-Jul-16 10:00N 37°57' W 122°31'0 0.0
2018-Jul-16 09:30N 37°57' W 122°31'0 0.0
2018-Jul-16 09:00N 37°57' W 122°31'0 0.0
2018-Jul-16 08:30N 37°57' W 122°31'0 0.0
2018-Jul-16 08:00N 37°57' W 122°31'0 0.0
2018-Jul-16 07:30N 37°57' W 122°31'0 0.0
2018-Jul-16 07:00N 37°57' W 122°31'0 0.0
2018-Jul-16 06:30N 37°57' W 122°31'0 0.0
2018-Jul-16 06:00N 37°57' W 122°31'0 0.0
2018-Jul-16 05:30N 37°57' W 122°31'0 0.0
2018-Jul-16 05:00N 37°57' W 122°31'0 0.0
2018-Jul-16 04:30N 37°57' W 122°31'0 0.0
2018-Jul-16 04:00N 37°57' W 122°31'0 0.0
2018-Jul-16 03:30N 37°57' W 122°31'0 0.0
2018-Jul-16 03:00N 37°57' W 122°31'0 0.2
2018-Jul-16 02:30N 37°57' W 122°30'2 4.6
2018-Jul-16 02:00N 37°56' W 122°28'816.9
2018-Jul-16 01:30N 37°48' W 122°24'0 0.9
2018-Jul-16 01:01N 37°48' W 122°23'510.5
2018-Jul-16 00:30N 37°51' W 122°29'2 3.6
2018-Jul-16 00:01N 37°51' W 122°27'4 7.6
2018-Jul-15 23:31N 37°48' W 122°24'3 6.8
2018-Jul-15 23:00N 37°50' W 122°26'2 4.2
2018-Jul-15 22:30N 37°51' W 122°29'510.8
2018-Jul-15 22:01N 37°48' W 122°24'2 4.1
2018-Jul-15 21:30N 37°50' W 122°25'4 7.0
2018-Jul-15 21:00N 37°51' W 122°29'511.0
2018-Jul-15 20:31N 37°48' W 122°23'2 4.5
2018-Jul-15 20:01N 37°50' W 122°25'3 6.6
2018-Jul-15 19:30N 37°51' W 122°29'510.8
2018-Jul-15 19:00N 37°48' W 122°24'4 7.9
2018-Jul-15 18:31N 37°51' W 122°27'1 1.1
2018-Jul-15 18:01N 37°51' W 122°26'4 7.7
2018-Jul-15 17:30N 37°48' W 122°24'714.3
2018-Jul-15 17:00N 37°54' W 122°27'4 7.1
2018-Jul-15 16:30N 37°57' W 122°31'0 0.0
2018-Jul-15 06:48N 37°57' W 122°31'2 7.2
2018-Jul-15 06:30N 37°56' W 122°28'918.1
2018-Jul-15 06:00N 37°48' W 122°23'1 2.6
2018-Jul-15 05:30N 37°47' W 122°23'0 0.0
2018-Jul-15 05:00N 37°47' W 122°23'0 0.0
2018-Jul-15 04:30N 37°47' W 122°23'0 0.0
2018-Jul-15 04:00N 37°47' W 122°23'0 0.0
2018-Jul-15 03:30N 37°47' W 122°23'0 0.0
2018-Jul-15 03:00N 37°47' W 122°23'0 0.0
2018-Jul-15 02:30N 37°47' W 122°23'0 0.0
2018-Jul-15 02:00N 37°47' W 122°23'0 0.7
2018-Jul-15 01:31N 37°47' W 122°23'917.7
2018-Jul-15 01:00N 37°55' W 122°27'3 6.3
2018-Jul-15 00:30N 37°57' W 122°31'0 0.0
2018-Jul-15 00:00N 37°57' W 122°31'0 0.0
2018-Jul-14 17:44N 37°57' W 122°31'0 0.0
2018-Jul-14 17:30N 37°57' W 122°31'3 5.5
2018-Jul-14 17:00N 37°55' W 122°27'3 5.5
2018-Jul-14 16:30N 37°57' W 122°31'0 0.0
2018-Jul-14 16:00N 37°57' W 122°31'0 0.0
2018-Jul-14 07:03N 37°57' W 122°31'0 0.0
2018-Jul-14 07:00N 37°57' W 122°31'611.7
2018-Jul-14 06:31N 37°53' W 122°25'612.4
2018-Jul-14 06:00N 37°47' W 122°23'0 0.0
2018-Jul-14 05:30N 37°47' W 122°23'0 0.0
2018-Jul-14 05:00N 37°47' W 122°23'0 0.0
2018-Jul-14 04:30N 37°47' W 122°23'0 0.0
2018-Jul-14 04:00N 37°47' W 122°23'0 0.0
2018-Jul-14 03:30N 37°47' W 122°23'0 0.0
2018-Jul-14 03:00N 37°47' W 122°23'0 0.0
2018-Jul-14 02:30N 37°47' W 122°23'0 0.0
2018-Jul-14 02:00N 37°47' W 122°23'2 4.9
2018-Jul-14 01:30N 37°49' W 122°23'816.8
2018-Jul-14 01:00N 37°56' W 122°29'1 2.4
2018-Jul-14 00:30N 37°57' W 122°31'0 0.0
2018-Jul-13 19:27N 37°57' W 122°31'0 0.0
2018-Jul-13 19:00N 37°57' W 122°31'2 4.6
2018-Jul-13 18:30N 37°56' W 122°28'2 3.1
2018-Jul-13 18:00N 37°55' W 122°26'1 1.2
2018-Jul-13 17:30N 37°54' W 122°26'4 8.2
2018-Jul-13 17:01N 37°51' W 122°24'1 2.5
2018-Jul-13 16:30N 37°49' W 122°24'4 7.5
2018-Jul-13 16:00N 37°52' W 122°27'510.4
2018-Jul-13 15:30N 37°48' W 122°24'511.0
2018-Jul-13 15:00N 37°52' W 122°27'4 4.1
2018-Jul-13 14:00N 37°49' W 122°24'4 8.2
2018-Jul-13 13:30N 37°52' W 122°27'510.7
2018-Jul-13 13:00N 37°48' W 122°24'511.0
2018-Jul-13 12:31N 37°52' W 122°27'4 8.1
2018-Jul-13 12:00N 37°56' W 122°29'  
Track history (hours):
 
Tides and Currents Weather Stations Pressure Air Temp Water Temp Dewpoint Dewpoint Depression Visibility Wind Speed Wind Dir Waves Ship Positions

M S San Francisco

Owner: GOLDEN GATE BRIDGE HWY & TRANSP DISTRICT, LARKSPUR, CA. More information available from US FCC via Universal Licensing System and Coast Guard Vessel Documentation Center.

Last reported at 2018-Jul-23 11:31 UTC. Time now 2018-Jul-23 11:37 UTC.
Position N 37°57' W 122°31'.

Length 58 m.

Type: Passenger vessel. MMSI: 366963980.

Date/timePositionNaut miles runAvg speedWind from/ knotsBaromVisibWave heightAir tempDewpointWater temp
2018-Jul-23 11:31N 37°57' W 122°31'0 0.0
2018-Jul-23 05:32N 37°57' W 122°31'0 0.0
2018-Jul-23 05:30N 37°57' W 122°31'611.2
2018-Jul-23 05:01N 37°53' W 122°25'510.6
2018-Jul-23 04:30N 37°48' W 122°24'0 0.0
2018-Jul-23 04:00N 37°48' W 122°24'4 8.4
2018-Jul-23 03:30N 37°51' W 122°27'0 0.9
2018-Jul-23 03:01N 37°51' W 122°28'5 9.2
2018-Jul-23 02:30N 37°48' W 122°24'510.5
2018-Jul-23 02:00N 37°51' W 122°29'0 0.4
2018-Jul-23 01:30N 37°51' W 122°28'510.2
2018-Jul-23 01:00N 37°48' W 122°24'0 0.0
2018-Jul-23 00:30N 37°48' W 122°24'0 0.0
2018-Jul-23 00:00N 37°48' W 122°24'0 0.1
2018-Jul-22 23:30N 37°48' W 122°24'0 0.0
2018-Jul-22 23:00N 37°48' W 122°24'510.8
2018-Jul-22 22:30N 37°51' W 122°29'0 0.1
2018-Jul-22 22:00N 37°51' W 122°29'0 0.8
2018-Jul-22 21:31N 37°51' W 122°28'5 9.3
2018-Jul-22 21:00N 37°56' W 122°28'2 4.3
2018-Jul-22 20:30N 37°57' W 122°31'0 0.0
2018-Jul-22 02:58N 37°57' W 122°31'0 0.0
2018-Jul-22 02:30N 37°57' W 122°31'2 3.7
2018-Jul-22 02:00N 37°56' W 122°28'917.8
2018-Jul-22 01:30N 37°48' W 122°23'0 0.5
2018-Jul-22 01:00N 37°48' W 122°23'510.7
2018-Jul-22 00:30N 37°51' W 122°29'1 2.7
2018-Jul-22 00:00N 37°51' W 122°27'4 8.2
2018-Jul-21 23:30N 37°48' W 122°24'510.4
2018-Jul-21 23:00N 37°51' W 122°28'0 0.3
2018-Jul-21 22:30N 37°51' W 122°28'510.2
2018-Jul-21 22:01N 37°48' W 122°24'3 6.6
2018-Jul-21 21:31N 37°50' W 122°26'2 4.6
2018-Jul-21 21:00N 37°51' W 122°29'510.8
2018-Jul-21 20:30N 37°48' W 122°24'3 6.1
2018-Jul-21 20:00N 37°50' W 122°26'2 5.0
2018-Jul-21 19:30N 37°51' W 122°28'510.4
2018-Jul-21 19:00N 37°48' W 122°24'510.0
2018-Jul-21 18:30N 37°51' W 122°28'1 2.5
2018-Jul-21 18:00N 37°51' W 122°27'4 7.6
2018-Jul-21 17:30N 37°48' W 122°23'816.1
2018-Jul-21 17:01N 37°55' W 122°27'3 5.7
2018-Jul-21 16:30N 37°57' W 122°31'0 0.0
2018-Jul-21 16:00N 37°57' W 122°31'0 0.0
2018-Jul-21 15:30N 37°57' W 122°31'0 0.0
2018-Jul-21 15:00N 37°57' W 122°31'0 0.0
2018-Jul-21 14:30N 37°57' W 122°31'0 0.0
2018-Jul-21 13:30N 37°57' W 122°31'0 0.0
2018-Jul-21 13:00N 37°57' W 122°31'0 0.0
2018-Jul-21 12:30N 37°57' W 122°31'0 0.0
2018-Jul-21 12:00N 37°57' W 122°31'0 0.0
2018-Jul-21 11:30N 37°57' W 122°31'0 0.0
2018-Jul-21 11:00N 37°57' W 122°31'0 0.0
2018-Jul-21 10:30N 37°57' W 122°31'0 0.0
2018-Jul-21 10:00N 37°57' W 122°31'0 0.0
2018-Jul-21 09:30N 37°57' W 122°31'0 0.0
2018-Jul-21 09:00N 37°57' W 122°31'0 0.0
2018-Jul-21 08:30N 37°57' W 122°31'0 0.0
2018-Jul-21 08:00N 37°57' W 122°31'0 0.0
2018-Jul-21 07:30N 37°57' W 122°31'0 0.0
2018-Jul-21 07:00N 37°57' W 122°31'0 0.0
2018-Jul-21 06:30N 37°57' W 122°31'0 0.0
2018-Jul-21 06:00N 37°57' W 122°31'0 0.0
2018-Jul-21 05:30N 37°57' W 122°31'0 0.0
2018-Jul-21 05:00N 37°57' W 122°31'0 0.4
2018-Jul-21 04:30N 37°57' W 122°30'2 4.4
2018-Jul-21 04:00N 37°56' W 122°28'4 7.9
2018-Jul-21 03:30N 37°53' W 122°25'5 9.8
2018-Jul-21 03:00N 37°48' W 122°24'0 0.0
2018-Jul-21 02:30N 37°48' W 122°24'0 0.0
2018-Jul-21 02:00N 37°48' W 122°24'510.7
2018-Jul-21 01:30N 37°51' W 122°29'4 7.1
2018-Jul-21 01:00N 37°50' W 122°24'2 4.8
2018-Jul-21 00:31N 37°48' W 122°23'510.7
2018-Jul-21 00:01N 37°51' W 122°29'2 5.0
2018-Jul-20 23:30N 37°51' W 122°26'3 6.5
2018-Jul-20 23:00N 37°48' W 122°24'510.6
2018-Jul-20 22:30N 37°51' W 122°29'0 0.0
2018-Jul-20 22:00N 37°51' W 122°29'3 5.8
2018-Jul-20 21:30N 37°54' W 122°26'4 9.0
2018-Jul-20 21:00N 37°57' W 122°31'0 0.0
2018-Jul-20 20:30N 37°57' W 122°31'0 0.0
2018-Jul-20 20:00N 37°57' W 122°31'0 0.0
2018-Jul-20 19:30N 37°57' W 122°31'0 0.0
2018-Jul-20 19:00N 37°57' W 122°31'0 0.0
2018-Jul-20 18:30N 37°57' W 122°31'0 0.0
2018-Jul-20 18:00N 37°57' W 122°31'1 1.8
2018-Jul-20 17:30N 37°56' W 122°30'611.7
2018-Jul-20 17:00N 37°52' W 122°24'3 6.2
2018-Jul-20 16:31N 37°49' W 122°24'5 9.0
2018-Jul-20 16:00N 37°52' W 122°27'510.9
2018-Jul-20 15:30N 37°48' W 122°24'510.5
2018-Jul-20 15:00N 37°52' W 122°27'2 3.8
2018-Jul-20 14:30N 37°51' W 122°26'3 5.7
2018-Jul-20 14:00N 37°48' W 122°23'5 9.9
2018-Jul-20 13:30N 37°52' W 122°27'510.9
2018-Jul-20 13:00N 37°48' W 122°24'510.9
2018-Jul-20 12:30N 37°52' W 122°27'2 3.4
2018-Jul-20 12:00N 37°54' W 122°27'4 8.0
2018-Jul-20 11:30N 37°57' W 122°31'0 0.0
2018-Jul-20 04:32N 37°57' W 122°31'0 0.0
2018-Jul-20 04:31N 37°57' W 122°31'2 4.6
2018-Jul-20 04:01N 37°56' W 122°28'3 5.8
2018-Jul-20 03:30N 37°54' W 122°25'612.1
2018-Jul-20 03:00N 37°48' W 122°24'0 0.1
2018-Jul-20 02:31N 37°48' W 122°24'0 0.8
2018-Jul-20 02:01N 37°48' W 122°23'510.7
2018-Jul-20 01:30N 37°51' W 122°29'3 7.1
2018-Jul-20 01:00N 37°50' W 122°24'2 4.7
2018-Jul-20 00:30N 37°48' W 122°23'510.6
2018-Jul-20 00:01N 37°51' W 122°29'1 2.1
2018-Jul-19 23:30N 37°51' W 122°27'5 9.1
2018-Jul-19 23:01N 37°48' W 122°24'510.7
2018-Jul-19 22:30N 37°51' W 122°29'0 0.0
2018-Jul-19 22:01N 37°51' W 122°29'3 5.6
2018-Jul-19 21:30N 37°53' W 122°26'5 9.3
2018-Jul-19 21:00N 37°57' W 122°31'0 0.0
2018-Jul-18 04:05N 37°57' W 122°31'0 0.8
2018-Jul-18 04:00N 37°57' W 122°30'510.3
2018-Jul-18 03:30N 37°53' W 122°25'611.4
2018-Jul-18 03:00N 37°48' W 122°24'510.8
2018-Jul-18 02:30N 37°51' W 122°29'0 0.4
2018-Jul-18 02:00N 37°51' W 122°28'3 5.8
2018-Jul-18 01:30N 37°50' W 122°25'3 5.5
2018-Jul-18 01:00N 37°48' W 122°24'2 4.3
2018-Jul-18 00:30N 37°50' W 122°25'3 6.7
2018-Jul-18 00:00N 37°51' W 122°29'510.6
2018-Jul-17 23:30N 37°48' W 122°23'0 0.7
2018-Jul-17 23:00N 37°48' W 122°24'510.9
2018-Jul-17 22:31N 37°51' W 122°29'0 0.0
2018-Jul-17 22:01N 37°51' W 122°29'2 4.6
2018-Jul-17 21:30N 37°53' W 122°26'510.4
2018-Jul-17 21:00N 37°57' W 122°30'0 0.0
2018-Jul-17 20:30N 37°57' W 122°30'0 0.0
2018-Jul-17 18:17N 37°57' W 122°31'0 0.0
2018-Jul-17 18:00N 37°57' W 122°31'1 2.7
2018-Jul-17 17:30N 37°56' W 122°29'713.0
2018-Jul-17 17:00N 37°51' W 122°24'1 2.8
2018-Jul-17 16:31N 37°49' W 122°24'4 7.6
2018-Jul-17 16:00N 37°52' W 122°27'510.9
2018-Jul-17 15:30N 37°48' W 122°24'510.7
2018-Jul-17 15:00N 37°52' W 122°27'2 4.2
2018-Jul-17 14:30N 37°51' W 122°26'2 4.0
2018-Jul-17 14:00N 37°49' W 122°24'4 8.5
2018-Jul-17 13:31N 37°52' W 122°27'510.8
2018-Jul-17 13:00N 37°48' W 122°24'511.0
2018-Jul-17 12:30N 37°52' W 122°27'4 7.6
2018-Jul-17 12:00N 37°56' W 122°29'2 3.1
2018-Jul-17 11:30N 37°57' W 122°31'0 0.0
2018-Jul-17 04:26N 37°57' W 122°31'2 5.1
2018-Jul-17 04:01N 37°56' W 122°28'4 8.6
2018-Jul-17 03:30N 37°51' W 122°29'510.9
2018-Jul-17 03:00N 37°48' W 122°23'3 5.6
2018-Jul-17 02:31N 37°50' W 122°26'2 4.2
2018-Jul-17 02:00N 37°51' W 122°28'5 9.6
2018-Jul-17 01:30N 37°48' W 122°24'4 8.0
2018-Jul-17 01:00N 37°51' W 122°27'1 1.8
2018-Jul-17 00:30N 37°51' W 122°28'0 0.5
2018-Jul-16 23:30N 37°51' W 122°29'2 3.0
2018-Jul-16 23:01N 37°51' W 122°27'4 8.0
2018-Jul-16 22:31N 37°48' W 122°24'510.7
2018-Jul-16 22:00N 37°51' W 122°29'3 5.2
2018-Jul-16 21:31N 37°53' W 122°26'510.4
2018-Jul-16 21:00N 37°57' W 122°30'0 0.1
2018-Jul-16 20:30N 37°57' W 122°31'0 0.0
2018-Jul-16 20:00N 37°57' W 122°31'0 0.0
2018-Jul-16 19:30N 37°57' W 122°31'0 0.0
2018-Jul-16 19:00N 37°57' W 122°31'0 0.0
2018-Jul-16 18:30N 37°57' W 122°31'0 0.0
2018-Jul-16 18:00N 37°57' W 122°31'3 6.5
2018-Jul-16 17:31N 37°55' W 122°27'4 7.3
2018-Jul-16 17:01N 37°52' W 122°24'3 6.8
2018-Jul-16 16:30N 37°49' W 122°24'5 9.4
2018-Jul-16 16:01N 37°52' W 122°27'510.9
2018-Jul-16 15:31N 37°48' W 122°24'510.3
2018-Jul-16 15:00N 37°52' W 122°27'1 2.1
2018-Jul-16 14:31N 37°51' W 122°27'3 6.8
2018-Jul-16 14:00N 37°49' W 122°23'5 9.6
2018-Jul-16 13:30N 37°52' W 122°27'510.9
2018-Jul-16 13:00N 37°48' W 122°24'511.0
2018-Jul-16 12:30N 37°52' W 122°27'2 3.3
2018-Jul-16 12:01N 37°54' W 122°27'4 8.1
2018-Jul-16 11:30N 37°57' W 122°31'0 0.0
2018-Jul-16 11:00N 37°57' W 122°31'0 0.0
2018-Jul-16 10:31N 37°57' W 122°31'0 0.0
2018-Jul-16 10:00N 37°57' W 122°31'0 0.0
2018-Jul-16 09:30N 37°57' W 122°31'0 0.0
2018-Jul-16 09:00N 37°57' W 122°31'0 0.0
2018-Jul-16 08:30N 37°57' W 122°31'0 0.0
2018-Jul-16 08:00N 37°57' W 122°31'0 0.0
2018-Jul-16 07:30N 37°57' W 122°31'0 0.0
2018-Jul-16 07:00N 37°57' W 122°31'0 0.0
2018-Jul-16 06:30N 37°57' W 122°31'0 0.0
2018-Jul-16 06:00N 37°57' W 122°31'0 0.0
2018-Jul-16 05:30N 37°57' W 122°31'0 0.0
2018-Jul-16 05:00N 37°57' W 122°31'0 0.0
2018-Jul-16 04:30N 37°57' W 122°31'0 0.0
2018-Jul-16 04:00N 37°57' W 122°31'0 0.0
2018-Jul-16 03:30N 37°57' W 122°31'0 0.0
2018-Jul-16 03:00N 37°57' W 122°31'0 0.2
2018-Jul-16 02:30N 37°57' W 122°30'2 4.6
2018-Jul-16 02:00N 37°56' W 122°28'816.9
2018-Jul-16 01:30N 37°48' W 122°24'0 0.9
2018-Jul-16 01:01N 37°48' W 122°23'510.5
2018-Jul-16 00:30N 37°51' W 122°29'2 3.6
2018-Jul-16 00:01N 37°51' W 122°27'4 7.6
2018-Jul-15 23:31N 37°48' W 122°24'3 6.8
2018-Jul-15 23:00N 37°50' W 122°26'2 4.2
2018-Jul-15 22:30N 37°51' W 122°29'510.8
2018-Jul-15 22:01N 37°48' W 122°24'2 4.1
2018-Jul-15 21:30N 37°50' W 122°25'4 7.0
2018-Jul-15 21:00N 37°51' W 122°29'511.0
2018-Jul-15 20:31N 37°48' W 122°23'2 4.5
2018-Jul-15 20:01N 37°50' W 122°25'3 6.6
2018-Jul-15 19:30N 37°51' W 122°29'510.8
2018-Jul-15 19:00N 37°48' W 122°24'4 7.9
2018-Jul-15 18:31N 37°51' W 122°27'1 1.1
2018-Jul-15 18:01N 37°51' W 122°26'4 7.7
2018-Jul-15 17:30N 37°48' W 122°24'714.3
2018-Jul-15 17:00N 37°54' W 122°27'4 7.1
2018-Jul-15 16:30N 37°57' W 122°31'0 0.0
2018-Jul-15 06:48N 37°57' W 122°31'2 7.2
2018-Jul-15 06:30N 37°56' W 122°28'918.1
2018-Jul-15 06:00N 37°48' W 122°23'1 2.6
2018-Jul-15 05:30N 37°47' W 122°23'0 0.0
2018-Jul-15 05:00N 37°47' W 122°23'0 0.0
2018-Jul-15 04:30N 37°47' W 122°23'0 0.0
2018-Jul-15 04:00N 37°47' W 122°23'0 0.0
2018-Jul-15 03:30N 37°47' W 122°23'0 0.0
2018-Jul-15 03:00N 37°47' W 122°23'0 0.0
2018-Jul-15 02:30N 37°47' W 122°23'0 0.0
2018-Jul-15 02:00N 37°47' W 122°23'0 0.7
2018-Jul-15 01:31N 37°47' W 122°23'917.7
2018-Jul-15 01:00N 37°55' W 122°27'3 6.3
2018-Jul-15 00:30N 37°57' W 122°31'0 0.0
2018-Jul-15 00:00N 37°57' W 122°31'0 0.0
2018-Jul-14 17:44N 37°57' W 122°31'0 0.0
2018-Jul-14 17:30N 37°57' W 122°31'3 5.5
2018-Jul-14 17:00N 37°55' W 122°27'3 5.5
2018-Jul-14 16:30N 37°57' W 122°31'0 0.0
2018-Jul-14 16:00N 37°57' W 122°31'0 0.0
2018-Jul-14 07:03N 37°57' W 122°31'0 0.0
2018-Jul-14 07:00N 37°57' W 122°31'611.7
2018-Jul-14 06:31N 37°53' W 122°25'612.4
2018-Jul-14 06:00N 37°47' W 122°23'0 0.0
2018-Jul-14 05:30N 37°47' W 122°23'0 0.0
2018-Jul-14 05:00N 37°47' W 122°23'0 0.0
2018-Jul-14 04:30N 37°47' W 122°23'0 0.0
2018-Jul-14 04:00N 37°47' W 122°23'0 0.0
2018-Jul-14 03:30N 37°47' W 122°23'0 0.0
2018-Jul-14 03:00N 37°47' W 122°23'0 0.0
2018-Jul-14 02:30N 37°47' W 122°23'0 0.0
2018-Jul-14 02:00N 37°47' W 122°23'2 4.9
2018-Jul-14 01:30N 37°49' W 122°23'816.8
2018-Jul-14 01:00N 37°56' W 122°29'1 2.4
2018-Jul-14 00:30N 37°57' W 122°31'0 0.0
2018-Jul-13 19:27N 37°57' W 122°31'0 0.0
2018-Jul-13 19:00N 37°57' W 122°31'2 4.6
2018-Jul-13 18:30N 37°56' W 122°28'2 3.1
2018-Jul-13 18:00N 37°55' W 122°26'1 1.2
2018-Jul-13 17:30N 37°54' W 122°26'4 8.2
2018-Jul-13 17:01N 37°51' W 122°24'1 2.5
2018-Jul-13 16:30N 37°49' W 122°24'4 7.5
2018-Jul-13 16:00N 37°52' W 122°27'510.4
2018-Jul-13 15:30N 37°48' W 122°24'511.0
2018-Jul-13 15:00N 37°52' W 122°27'4 4.1
2018-Jul-13 14:00N 37°49' W 122°24'4 8.2
2018-Jul-13 13:30N 37°52' W 122°27'510.7
2018-Jul-13 13:00N 37°48' W 122°24'511.0
2018-Jul-13 12:31N 37°52' W 122°27'4 8.1
2018-Jul-13 12:00N 37°56' W 122°29'  

Dump ship's entire track history